Time;durP1;ratioP1;P1;durP2;ratioP2;P2;SDS_P1;SDS_P2;PMS_P1;PMS_P2;Temp;Humidity;BMP_temperature;BMP_pressure;BME280_temperature;BME280_humidity;BME280_pressure;Samples;Min_cycle;Max_cycle;Signal;HPM_P1;HPM_P2
2021/07/29 00:00:17;;;;;;;6.03;5.72;;;;;;;16.19;83.12;100648.88;4389533;32;20081;-69
2021/07/29 00:02:43;;;;;;;4.78;4.57;;;;;;;16.11;83.65;100647.66;4377453;32;20081;-69
2021/07/29 00:05:09;;;;;;;7.47;7.07;;;;;;;16.05;83.98;100663.16;4389433;32;20594;-70
2021/07/29 00:07:34;;;;;;;5.30;5.10;;;;;;;15.99;83.75;100661.81;4381597;32;20115;-70
2021/07/29 00:09:59;;;;;;;5.35;5.00;;;;;;;15.95;84.41;100665.66;4390118;32;20065;-71
2021/07/29 00:12:25;;;;;;;5.82;5.53;;;;;;;15.09;83.67;100531.84;4384173;32;20061;-69
2021/07/29 00:14:51;;;;;;;5.20;5.00;;;;;;;15.84;83.66;100650.59;4379502;32;20539;-68
2021/07/29 00:17:28;;;;;;;5.00;4.80;;;;;;;15.79;84.51;100646.59;4393421;32;20073;-69
2021/07/29 00:19:54;;;;;;;5.30;5.00;;;;;;;15.77;85.00;100643.22;4379178;32;20511;-70
2021/07/29 00:22:19;;;;;;;5.65;5.35;;;;;;;15.73;85.54;100635.50;4380869;32;20072;-69
2021/07/29 00:24:44;;;;;;;4.95;4.75;;;;;;;15.71;84.92;100633.91;4384445;32;20134;-69
2021/07/29 00:27:10;;;;;;;6.60;6.30;;;;;;;14.74;85.13;100488.56;4377530;32;20728;-69
2021/07/29 00:29:35;;;;;;;4.70;4.50;;;;;;;15.82;84.89;100634.00;4410292;32;20137;-69
2021/07/29 00:32:01;;;;;;;5.32;5.07;;;;;;;15.67;84.83;100604.19;4380193;32;20076;-69
2021/07/29 00:34:26;;;;;;;5.10;4.90;;;;;;;15.87;85.13;100639.75;4382324;32;20223;-70
2021/07/29 00:36:51;;;;;;;5.05;4.85;;;;;;;15.83;85.92;100685.09;4392269;32;20085;-70
2021/07/29 00:39:17;;;;;;;5.20;5.00;;;;;;;15.31;85.87;100584.81;4380438;32;20074;-68
2021/07/29 00:41:42;;;;;;;4.90;4.70;;;;;;;15.87;86.03;100692.69;4384549;32;20150;-68
2021/07/29 00:44:07;;;;;;;4.60;4.40;;;;;;;15.85;85.17;100705.19;4391373;32;20061;-68
2021/07/29 00:46:33;;;;;;;4.90;4.70;;;;;;;15.74;85.46;100686.66;4396320;32;20072;-69
2021/07/29 00:49:00;;;;;;;4.75;4.55;;;;;;;15.79;85.44;100678.34;4373777;32;20065;-70
2021/07/29 00:51:25;;;;;;;5.60;5.25;;;;;;;15.75;85.54;100669.78;4387586;32;20132;-69
2021/07/29 00:53:51;;;;;;;5.07;4.87;;;;;;;14.55;84.77;100472.31;4385492;32;20060;-68
2021/07/29 00:56:17;;;;;;;6.60;6.30;;;;;;;15.64;84.62;100662.62;4387576;32;20079;-70
2021/07/29 00:58:42;;;;;;;5.78;5.47;;;;;;;15.67;84.45;100664.19;4392585;32;20680;-68
2021/07/29 01:01:08;;;;;;;6.40;6.10;;;;;;;15.42;83.42;100629.00;4384932;32;20093;-68
2021/07/29 01:03:33;;;;;;;5.00;4.80;;;;;;;15.67;83.95;100666.84;4398970;32;20151;-68
2021/07/29 01:05:59;;;;;;;4.93;4.72;;;;;;;15.62;83.87;100674.28;4381449;32;20068;-71
2021/07/29 01:08:24;;;;;;;5.28;5.07;;;;;;;15.58;84.10;100678.97;4390250;32;20134;-69
2021/07/29 01:10:50;;;;;;;4.82;4.62;;;;;;;15.56;84.25;100673.78;4391452;32;20607;-69
2021/07/29 01:13:15;;;;;;;7.03;6.72;;;;;;;15.01;84.22;100590.53;4384650;32;20095;-68
2021/07/29 01:15:40;;;;;;;5.07;4.82;;;;;;;15.52;85.48;100672.31;4380116;32;20120;-69
2021/07/29 01:18:06;;;;;;;6.28;5.97;;;;;;;15.56;85.25;100679.06;4384278;32;20645;-69
2021/07/29 01:20:31;;;;;;;5.22;5.03;;;;;;;15.47;85.28;100666.50;4385073;32;21940;-69
2021/07/29 01:22:56;;;;;;;5.25;4.90;;;;;;;15.48;85.32;100654.97;4393717;32;20085;-69
2021/07/29 01:25:22;;;;;;;4.97;4.78;;;;;;;15.43;86.46;100648.34;4394168;32;21071;-68
2021/07/29 01:27:47;;;;;;;5.10;4.90;;;;;;;15.40;86.61;100646.78;4395800;32;20073;-68
2021/07/29 01:30:13;;;;;;;6.50;6.20;;;;;;;15.39;86.75;100631.84;4383609;32;20497;-69
2021/07/29 01:32:39;;;;;;;4.80;4.60;;;;;;;15.37;86.84;100628.47;4392139;32;20060;-69
2021/07/29 01:35:08;;;;;;;6.18;5.87;;;;;;;15.38;87.13;100631.97;4393528;32;20146;-69
2021/07/29 01:37:33;;;;;;;4.93;4.72;;;;;;;15.35;86.85;100633.91;4379884;32;20677;-69
2021/07/29 01:39:59;;;;;;;4.90;4.70;;;;;;;15.35;87.08;100628.59;4394953;32;20066;-70
2021/07/29 01:42:24;;;;;;;4.70;4.50;;;;;;;15.34;86.76;100636.66;4368552;32;20362;-68
2021/07/29 01:44:49;;;;;;;5.20;5.00;;;;;;;15.33;87.33;100642.88;4390820;32;20064;-69
2021/07/29 01:47:15;;;;;;;6.68;6.37;;;;;;;15.29;86.73;100629.03;4378094;32;20974;-68
2021/07/29 01:49:40;;;;;;;4.70;4.50;;;;;;;15.28;87.47;100640.56;4385856;32;20077;-69
2021/07/29 01:52:06;;;;;;;6.30;6.00;;;;;;;15.22;86.62;100640.19;4383649;32;20498;-69
2021/07/29 01:54:31;;;;;;;4.82;4.62;;;;;;;15.17;86.72;100635.22;4392964;32;20282;-69
2021/07/29 01:56:56;;;;;;;5.00;4.80;;;;;;;15.08;87.42;100627.97;4384505;32;20119;-69
2021/07/29 01:59:22;;;;;;;4.87;4.68;;;;;;;15.05;87.62;100623.72;4388784;32;20488;-68
2021/07/29 02:01:47;;;;;;;4.80;4.60;;;;;;;15.03;88.16;100627.44;4397190;32;20168;-68
2021/07/29 02:04:12;;;;;;;6.75;6.45;;;;;;;15.06;87.97;100628.06;4378441;32;20076;-69
2021/07/29 02:06:39;;;;;;;5.05;4.75;;;;;;;15.10;87.93;100626.06;4388261;32;20074;-69
2021/07/29 02:09:05;;;;;;;6.43;6.12;;;;;;;15.09;88.27;100635.75;4378589;32;20156;-69
2021/07/29 02:11:32;;;;;;;4.90;4.60;;;;;;;15.07;87.78;100628.91;4380646;32;20921;-68
2021/07/29 02:13:58;;;;;;;5.40;5.20;;;;;;;15.10;87.99;100628.69;4388318;32;20528;-68
2021/07/29 02:16:25;;;;;;;4.85;4.65;;;;;;;15.06;87.38;100636.00;4392926;32;20116;-68
2021/07/29 02:18:51;;;;;;;5.00;4.80;;;;;;;15.03;87.88;100627.44;4376659;32;20851;-69
2021/07/29 02:21:16;;;;;;;4.70;4.50;;;;;;;14.99;88.06;100629.47;4400428;32;20263;-68
2021/07/29 02:23:42;;;;;;;4.85;4.65;;;;;;;14.94;88.35;100628.97;4369815;32;20065;-68
2021/07/29 02:26:07;;;;;;;6.35;6.05;;;;;;;14.91;88.32;100634.44;4389197;32;20065;-70
2021/07/29 02:28:32;;;;;;;4.60;4.40;;;;;;;14.84;87.87;100631.41;4371181;32;20073;-69
2021/07/29 02:30:58;;;;;;;4.80;4.60;;;;;;;14.82;88.44;100633.31;4394766;32;20062;-69
2021/07/29 02:33:23;;;;;;;4.78;4.57;;;;;;;14.77;88.12;100635.44;4389887;32;20075;-69
2021/07/29 02:35:49;;;;;;;4.90;4.70;;;;;;;14.71;88.10;100639.38;4388208;32;20077;-69
2021/07/29 02:38:15;;;;;;;6.68;6.22;;;;;;;14.69;88.09;100636.00;4374977;32;20073;-69
2021/07/29 02:40:40;;;;;;;4.80;4.60;;;;;;;14.63;88.46;100644.31;4375932;32;20122;-68
2021/07/29 02:43:05;;;;;;;6.43;6.12;;;;;;;14.62;88.58;100634.72;4387053;32;20630;-69
2021/07/29 02:45:31;;;;;;;5.40;5.10;;;;;;;14.58;89.27;100638.53;4390825;32;20077;-69
2021/07/29 02:47:56;;;;;;;4.95;4.75;;;;;;;14.36;88.80;100624.16;4393374;32;20096;-68
2021/07/29 02:50:21;;;;;;;5.30;5.00;;;;;;;14.52;88.68;100639.78;4389328;32;21199;-69
2021/07/29 02:52:47;;;;;;;4.70;4.50;;;;;;;14.52;89.10;100641.56;4388357;32;20076;-68
2021/07/29 02:55:12;;;;;;;4.57;4.37;;;;;;;14.46;89.35;100642.00;4391666;32;20088;-69
2021/07/29 02:57:38;;;;;;;4.97;4.78;;;;;;;14.45;89.64;100638.53;4375712;32;20169;-69
2021/07/29 03:00:06;;;;;;;4.80;4.60;;;;;;;14.44;88.99;100642.09;4389284;32;20577;-68
2021/07/29 03:02:32;;;;;;;4.75;4.55;;;;;;;14.43;89.23;100639.56;4373893;32;20191;-68
2021/07/29 03:04:57;;;;;;;4.60;4.40;;;;;;;14.43;89.41;100644.84;4391825;32;20653;-68
2021/07/29 03:07:22;;;;;;;4.78;4.57;;;;;;;14.45;89.66;100638.53;4372039;32;20085;-68
2021/07/29 03:09:48;;;;;;;4.70;4.50;;;;;;;14.44;89.58;100633.34;4375750;32;20174;-68
2021/07/29 03:12:13;;;;;;;6.80;6.50;;;;;;;14.48;88.95;100646.22;4383308;32;20075;-69
2021/07/29 03:14:40;;;;;;;5.03;4.82;;;;;;;14.43;89.36;100635.12;4387799;32;20527;-68
2021/07/29 03:17:05;;;;;;;5.97;5.68;;;;;;;13.82;88.99;100542.53;4390087;32;20065;-68
2021/07/29 03:19:30;;;;;;;5.15;4.93;;;;;;;14.41;89.29;100650.22;4386504;32;20086;-68
2021/07/29 03:21:56;;;;;;;5.20;4.90;;;;;;;14.39;89.52;100646.84;4390200;32;20095;-69
2021/07/29 03:24:21;;;;;;;5.20;5.00;;;;;;;13.82;89.44;100558.38;4378179;32;20445;-68
2021/07/29 03:26:46;;;;;;;4.90;4.70;;;;;;;14.38;89.44;100647.81;4390937;32;20089;-68
2021/07/29 03:29:13;;;;;;;6.57;6.28;;;;;;;14.37;89.62;100646.09;4377506;32;20083;-68
2021/07/29 03:31:39;;;;;;;4.80;4.60;;;;;;;14.40;89.48;100653.81;4380044;32;20100;-69
2021/07/29 03:34:04;;;;;;;6.03;5.72;;;;;;;14.40;89.42;100650.34;4390358;32;20173;-69
2021/07/29 03:36:29;;;;;;;4.53;4.32;;;;;;;14.40;89.73;100688.16;4391430;32;20085;-68
2021/07/29 03:38:55;;;;;;;4.70;4.50;;;;;;;14.41;89.85;100652.84;4388591;32;20088;-68
2021/07/29 03:41:20;;;;;;;5.28;4.97;;;;;;;14.42;89.65;100657.22;4375557;32;20077;-69
2021/07/29 03:43:45;;;;;;;5.15;4.85;;;;;;;14.43;89.51;100650.13;4389754;32;20065;-68
2021/07/29 03:46:11;;;;;;;6.65;6.25;;;;;;;14.48;89.48;100653.31;4383373;32;20143;-69
2021/07/29 03:48:36;;;;;;;4.60;4.40;;;;;;;14.48;89.81;100655.94;4392544;32;20574;-71
2021/07/29 03:51:01;;;;;;;4.50;4.30;;;;;;;14.48;89.81;100645.38;4375739;32;20072;-69
2021/07/29 03:53:27;;;;;;;4.82;4.62;;;;;;;14.53;90.22;100645.88;4377650;32;20103;-69
2021/07/29 03:55:52;;;;;;;4.50;4.30;;;;;;;14.11;89.69;100588.06;4396848;32;20069;-71
2021/07/29 03:58:17;;;;;;;5.85;5.60;;;;;;;14.54;89.85;100655.50;4378125;32;20546;-68
2021/07/29 04:00:43;;;;;;;4.75;4.55;;;;;;;14.52;89.43;100650.34;4379608;32;20610;-68
2021/07/29 04:03:08;;;;;;;6.22;5.93;;;;;;;14.53;90.45;100672.28;4381389;32;20069;-68
2021/07/29 04:05:34;;;;;;;4.95;4.75;;;;;;;14.55;89.62;100649.25;4380700;32;20094;-69
2021/07/29 04:07:59;;;;;;;4.80;4.60;;;;;;;13.41;89.30;100467.13;4374115;32;20075;-70
2021/07/29 04:10:25;;;;;;;4.85;4.65;;;;;;;14.63;88.81;100661.97;4384109;32;20070;-69
2021/07/29 04:12:50;;;;;;;4.70;4.50;;;;;;;14.66;88.71;100665.25;4383197;32;20082;-69
2021/07/29 04:15:16;;;;;;;6.60;6.30;;;;;;;14.69;88.29;100667.69;4384394;32;20103;-69
2021/07/29 04:17:41;;;;;;;4.80;4.60;;;;;;;14.73;87.46;100663.87;4378063;32;20065;-69
2021/07/29 04:20:07;;;;;;;6.53;6.22;;;;;;;14.73;87.34;100669.16;4384112;32;20096;-69
2021/07/29 04:22:33;;;;;;;4.95;4.75;;;;;;;14.61;86.79;100648.03;4372759;32;20078;-68
2021/07/29 04:24:58;;;;;;;4.80;4.60;;;;;;;14.69;86.89;100667.69;4392340;32;20070;-69
2021/07/29 04:27:23;;;;;;;4.70;4.50;;;;;;;14.65;85.93;100663.53;4375278;32;20983;-69
2021/07/29 04:29:52;;;;;;;4.78;4.57;;;;;;;14.72;86.82;100680.66;4393321;32;20073;-68
2021/07/29 04:32:17;;;;;;;4.80;4.60;;;;;;;14.75;86.61;100683.12;4375797;32;20945;-68
2021/07/29 04:34:42;;;;;;;4.72;4.53;;;;;;;14.82;86.05;100672.09;4385693;32;20276;-68
2021/07/29 04:37:10;;;;;;;6.30;6.00;;;;;;;14.73;84.42;100653.31;4385552;32;20551;-70
2021/07/29 04:39:38;;;;;;;4.80;4.60;;;;;;;14.99;83.25;100671.75;4398627;32;20212;-68
2021/07/29 04:42:04;;;;;;;5.75;5.45;;;;;;;15.05;82.43;100679.22;4377867;32;20776;-71
2021/07/29 04:44:29;;;;;;;4.53;4.32;;;;;;;15.11;81.58;100684.09;4388953;32;20920;-68
2021/07/29 04:46:54;;;;;;;4.50;4.30;;;;;;;15.18;80.61;100679.22;4382592;32;20105;-70
2021/07/29 04:49:22;;;;;;;5.32;5.12;;;;;;;15.29;80.71;100681.91;4385282;32;20464;-69
2021/07/29 04:51:47;;;;;;;4.95;4.75;;;;;;;15.63;79.81;100678.63;4391903;32;20210;-70
2021/07/29 04:54:13;;;;;;;4.62;4.43;;;;;;;16.17;77.77;100679.94;4389764;32;20077;-70
2021/07/29 04:56:39;;;;;;;5.20;5.00;;;;;;;16.42;75.81;100678.91;4382131;32;20698;-70
2021/07/29 04:59:04;;;;;;;4.80;4.60;;;;;;;16.37;75.49;100683.69;4378525;32;20088;-71
2021/07/29 05:01:29;;;;;;;5.37;5.07;;;;;;;16.39;75.33;100695.03;4376226;32;20669;-70
2021/07/29 05:03:55;;;;;;;4.78;4.57;;;;;;;16.25;75.36;100693.44;4381534;32;20050;-70
2021/07/29 05:06:20;;;;;;;5.72;5.45;;;;;;;16.26;75.68;100697.78;4373344;32;20126;-70
2021/07/29 05:08:45;;;;;;;5.30;5.10;;;;;;;16.13;75.61;100700.50;4387557;32;20436;-70
2021/07/29 05:11:11;;;;;;;6.70;6.40;;;;;;;16.21;76.83;100700.75;4372123;32;20069;-71
2021/07/29 05:13:36;;;;;;;4.65;4.45;;;;;;;16.25;76.05;100699.56;4392535;32;20359;-70
2021/07/29 05:16:08;;;;;;;5.50;5.25;;;;;;;16.04;75.80;100680.03;4379172;32;20179;-71
2021/07/29 05:18:34;;;;;;;19.58;18.50;;;;;;;15.23;75.37;100567.84;4296110;32;20080;-73
2021/07/29 05:21:03;;;;;;;4.90;4.70;;;;;;;16.32;75.87;100707.91;4387498;32;20111;-73
2021/07/29 05:23:28;;;;;;;5.05;4.85;;;;;;;16.42;75.64;100703.59;4384309;32;20078;-70
2021/07/29 05:25:53;;;;;;;4.80;4.60;;;;;;;16.54;74.38;100707.94;4389936;32;20688;-73
2021/07/29 05:28:19;;;;;;;5.30;5.10;;;;;;;16.74;74.76;100703.72;4375980;32;20265;-71
2021/07/29 05:30:44;;;;;;;4.90;4.70;;;;;;;16.74;72.65;100708.19;4374470;32;20068;-72
2021/07/29 05:33:09;;;;;;;5.22;4.93;;;;;;;15.92;72.35;100529.13;4393183;32;20073;-72
2021/07/29 05:35:35;;;;;;;5.10;4.90;;;;;;;17.01;71.30;100705.19;4375502;32;20085;-71
2021/07/29 05:38:00;;;;;;;4.95;4.75;;;;;;;17.30;70.40;100710.00;4387930;32;20602;-71
2021/07/29 05:40:25;;;;;;;4.97;4.78;;;;;;;17.31;69.15;100711.69;4379278;32;20073;-70
2021/07/29 05:42:51;;;;;;;5.05;4.85;;;;;;;17.09;70.75;100716.03;4382230;32;20084;-72
2021/07/29 05:45:16;;;;;;;8.15;7.62;;;;;;;17.35;69.83;100718.44;4376393;32;20640;-71
2021/07/29 05:47:43;;;;;;;5.10;4.90;;;;;;;17.67;69.52;100717.63;4383866;32;20065;-69
2021/07/29 05:50:09;;;;;;;5.35;5.15;;;;;;;17.73;68.86;100723.25;4379731;32;20649;-68
2021/07/29 05:52:34;;;;;;;4.90;4.70;;;;;;;17.96;67.19;100723.25;4367825;32;20070;-70
2021/07/29 05:54:59;;;;;;;5.07;4.87;;;;;;;18.15;66.25;100722.53;4377417;32;20190;-70
2021/07/29 05:57:25;;;;;;;5.20;5.00;;;;;;;18.14;65.76;100720.84;4375331;32;20689;-68
2021/07/29 05:59:50;;;;;;;5.00;4.80;;;;;;;18.42;64.98;100719.38;4392427;32;20689;-71
2021/07/29 06:02:15;;;;;;;6.85;6.55;;;;;;;18.89;64.52;100722.44;4374020;32;20109;-69
2021/07/29 06:04:41;;;;;;;5.40;5.20;;;;;;;19.04;64.12;100738.87;4391349;32;20079;-69
2021/07/29 06:07:06;;;;;;;5.10;4.90;;;;;;;19.35;62.38;100716.72;4387737;32;20195;-70
2021/07/29 06:09:31;;;;;;;5.40;5.20;;;;;;;19.77;61.73;100716.53;4377743;32;20069;-73
2021/07/29 06:11:57;;;;;;;5.40;5.20;;;;;;;20.30;59.16;100705.41;4371349;32;20073;-71
2021/07/29 06:14:22;;;;;;;6.00;5.70;;;;;;;20.49;57.35;100713.38;4380943;32;20104;-71
2021/07/29 06:16:48;;;;;;;5.40;5.20;;;;;;;21.06;57.89;100724.00;4393215;32;20064;-69
2021/07/29 06:21:41;;;;;;;5.50;5.20;;;;;;;20.34;56.74;100698.81;4389580;32;20162;-72
2021/07/29 06:24:06;;;;;;;6.75;6.45;;;;;;;19.69;58.61;100711.87;4389435;32;20674;-70
2021/07/29 06:26:32;;;;;;;5.25;5.05;;;;;;;19.40;60.45;100707.31;4389656;32;20060;-71
2021/07/29 06:28:58;;;;;;;5.10;4.90;;;;;;;19.05;61.81;100731.75;4384370;32;20089;-70
2021/07/29 06:31:23;;;;;;;5.32;5.12;;;;;;;18.51;62.06;100733.69;4385777;32;20077;-70
2021/07/29 06:33:48;;;;;;;5.28;5.07;;;;;;;18.43;62.79;100736.16;4391855;32;20069;-69
2021/07/29 06:36:14;;;;;;;7.00;6.70;;;;;;;18.53;63.43;100745.03;4387822;32;20542;-71
2021/07/29 06:38:39;;;;;;;5.40;5.10;;;;;;;18.42;63.00;100737.09;4371658;32;20320;-68
2021/07/29 06:41:05;;;;;;;5.20;5.00;;;;;;;18.74;63.08;100735.22;4388840;32;20074;-66
2021/07/29 06:43:30;;;;;;;5.15;4.95;;;;;;;18.85;61.51;100736.13;4386335;32;20077;-74
2021/07/29 06:45:56;;;;;;;5.20;5.00;;;;;;;18.81;62.63;100734.72;4386941;32;20705;-67
2021/07/29 06:48:21;;;;;;;5.15;4.95;;;;;;;17.50;61.99;100528.81;4365065;32;21286;-72
2021/07/29 06:50:46;;;;;;;5.10;4.90;;;;;;;18.44;61.78;100744.00;4374578;32;20599;-71
2021/07/29 06:53:12;;;;;;;6.93;6.62;;;;;;;18.07;61.46;100751.53;4390072;32;20076;-66
2021/07/29 06:55:37;;;;;;;5.00;4.80;;;;;;;18.38;62.32;100738.34;4386979;32;20898;-67
2021/07/29 06:58:02;;;;;;;5.70;5.45;;;;;;;18.62;62.12;100743.38;4387133;32;20389;-67
2021/07/29 07:00:28;;;;;;;5.40;5.12;;;;;;;18.60;62.23;100745.34;4364301;32;21177;-70
2021/07/29 07:02:53;;;;;;;5.60;5.30;;;;;;;18.70;61.70;100743.56;4382566;32;20185;-70
2021/07/29 07:05:19;;;;;;;5.00;4.80;;;;;;;18.98;60.30;100739.41;4390126;32;20488;-71
2021/07/29 07:07:44;;;;;;;4.90;4.70;;;;;;;19.20;59.20;100745.50;4374354;32;20072;-72
2021/07/29 07:10:09;;;;;;;5.03;4.82;;;;;;;19.68;57.96;100752.78;4387112;32;20091;-68
2021/07/29 07:12:36;;;;;;;5.18;4.97;;;;;;;19.91;56.59;100746.25;4370018;32;20095;-68
2021/07/29 07:15:01;;;;;;;5.15;4.95;;;;;;;19.46;55.99;100706.78;4382771;32;20411;-69
2021/07/29 07:17:27;;;;;;;5.62;5.10;;;;;;;19.18;58.81;100750.13;4390329;32;20590;-70
2021/07/29 07:19:56;;;;;;;5.20;5.00;;;;;;;19.23;58.49;100745.25;4389403;32;20084;-71
2021/07/29 07:22:21;;;;;;;5.00;4.80;;;;;;;18.69;58.45;100747.22;4390847;32;20666;-71
2021/07/29 07:24:46;;;;;;;5.40;5.10;;;;;;;18.91;59.33;100748.91;4385422;32;20460;-70
2021/07/29 07:27:12;;;;;;;6.78;6.47;;;;;;;19.06;58.43;100752.91;4384241;32;20077;-70
2021/07/29 07:29:37;;;;;;;5.10;4.90;;;;;;;19.38;58.99;100751.84;4391315;32;20283;-71
2021/07/29 07:32:03;;;;;;;5.80;5.55;;;;;;;18.46;56.81;100598.56;4387835;32;20404;-71
2021/07/29 07:34:28;;;;;;;5.07;4.87;;;;;;;19.51;57.52;100767.59;4388557;32;20093;-71
2021/07/29 07:36:55;;;;;;;5.07;4.87;;;;;;;19.71;57.27;100763.19;4382948;32;20081;-70
2021/07/29 07:39:20;;;;;;;5.87;5.57;;;;;;;19.90;57.82;100760.53;4384861;32;20065;-70
2021/07/29 07:41:45;;;;;;;5.10;4.90;;;;;;;20.08;56.86;100763.34;4388710;32;20106;-71
2021/07/29 07:44:11;;;;;;;5.32;5.10;;;;;;;20.00;57.09;100771.19;4384283;32;20061;-71
2021/07/29 07:46:36;;;;;;;5.30;5.10;;;;;;;20.11;56.67;100770.22;4381167;32;21006;-70
2021/07/29 07:49:01;;;;;;;5.20;5.00;;;;;;;19.84;52.98;100774.41;4388144;32;20463;-70
2021/07/29 07:51:28;;;;;;;5.10;4.90;;;;;;;19.27;54.19;100773.28;4392181;32;20076;-70
2021/07/29 07:53:54;;;;;;;5.30;5.10;;;;;;;19.25;56.18;100772.56;4383507;32;20092;-71
2021/07/29 07:56:19;;;;;;;5.62;5.43;;;;;;;19.22;56.01;100775.47;4384623;32;20258;-71
2021/07/29 07:58:44;;;;;;;5.05;4.85;;;;;;;19.53;56.34;100761.16;4376098;32;20089;-71
2021/07/29 08:01:10;;;;;;;5.30;5.10;;;;;;;19.78;55.84;100774.12;4386523;32;20065;-70
2021/07/29 08:03:35;;;;;;;5.20;5.00;;;;;;;19.42;55.34;100776.37;4371902;32;20219;-71
2021/07/29 08:06:04;;;;;;;5.00;4.80;;;;;;;19.51;55.82;100771.09;4389626;32;20653;-70
2021/07/29 08:08:29;;;;;;;5.10;4.90;;;;;;;19.79;55.18;100767.84;4385854;32;20378;-70
2021/07/29 08:10:55;;;;;;;5.07;4.87;;;;;;;19.80;54.58;100770.34;4386953;32;20326;-71
2021/07/29 08:13:20;;;;;;;5.60;5.40;;;;;;;19.40;53.86;100759.72;4385473;32;20077;-70
2021/07/29 08:15:45;;;;;;;5.12;4.93;;;;;;;19.34;54.93;100769.06;4391240;32;20080;-69
2021/07/29 08:18:11;;;;;;;6.68;6.37;;;;;;;17.91;55.51;100563.47;4377214;32;20961;-68
2021/07/29 08:20:40;;;;;;;5.05;4.85;;;;;;;19.24;56.53;100776.19;4391183;32;20096;-69
2021/07/29 08:23:06;;;;;;;6.10;5.80;;;;;;;19.23;56.38;100764.72;4377415;32;20908;-70
2021/07/29 08:25:31;;;;;;;5.00;4.80;;;;;;;19.17;55.73;100764.41;4389395;32;20097;-68
2021/07/29 08:27:56;;;;;;;4.97;4.78;;;;;;;19.22;55.62;100775.47;4395229;32;20860;-68
2021/07/29 08:30:22;;;;;;;5.25;5.05;;;;;;;19.25;55.02;100772.56;4376243;32;20087;-72
2021/07/29 08:32:47;;;;;;;5.45;5.18;;;;;;;19.02;55.03;100703.56;4390412;32;20073;-71
2021/07/29 08:35:13;;;;;;;5.00;4.80;;;;;;;19.31;55.30;100766.69;4381909;32;20061;-74
2021/07/29 08:37:38;;;;;;;6.57;6.18;;;;;;;19.38;53.94;100767.81;4400230;32;20080;-73
2021/07/29 08:40:04;;;;;;;5.87;5.60;;;;;;;19.02;54.98;100770.06;4379159;32;20195;-74
2021/07/29 08:42:32;;;;;;;5.00;4.80;;;;;;;19.25;54.36;100770.75;4388293;32;20072;-74
2021/07/29 08:45:01;;;;;;;5.57;5.28;;;;;;;19.65;54.42;100767.22;4395865;32;20122;-72
2021/07/29 08:47:30;;;;;;;5.00;4.80;;;;;;;20.08;54.33;100770.50;4399002;32;20686;-71
2021/07/29 08:49:56;;;;;;;5.07;4.87;;;;;;;20.02;51.98;100731.09;4404002;32;20131;-71
2021/07/29 08:52:22;;;;;;;5.62;5.43;;;;;;;20.36;52.50;100760.81;4384935;32;20072;-69
2021/07/29 08:54:47;;;;;;;5.00;4.80;;;;;;;20.10;51.80;100776.53;4390840;32;20092;-71
2021/07/29 08:57:14;;;;;;;5.18;4.97;;;;;;;19.86;52.66;100758.28;4383219;32;20089;-70
2021/07/29 08:59:39;;;;;;;4.95;4.75;;;;;;;19.70;51.50;100762.31;4391125;32;20073;-70
2021/07/29 09:02:04;;;;;;;6.10;5.80;;;;;;;19.36;52.56;100755.63;4390532;32;20110;-72
2021/07/29 09:04:30;;;;;;;4.90;4.70;;;;;;;19.42;53.40;100766.56;4383702;32;20192;-70
2021/07/29 09:07:00;;;;;;;5.40;5.20;;;;;;;20.13;53.56;100774.44;4394133;32;20073;-70
2021/07/29 09:09:49;;;;;;;5.20;5.00;;;;;;;20.79;51.33;100767.50;4384068;32;20095;-70
2021/07/29 09:12:24;;;;;;;5.53;5.22;;;;;;;21.51;49.49;100762.44;4392299;32;20091;-71
2021/07/29 09:14:50;;;;;;;5.10;4.90;;;;;;;21.54;47.47;100763.97;4387704;32;20749;-72
2021/07/29 09:17:16;;;;;;;5.30;5.10;;;;;;;21.62;45.67;100761.38;4392831;32;20211;-70
2021/07/29 09:19:49;;;;;;;5.05;4.85;;;;;;;21.40;47.49;100768.78;4390809;32;20074;-71
2021/07/29 09:22:28;;;;;;;8.10;7.70;;;;;;;21.34;48.51;100765.87;4380524;32;20083;-70
2021/07/29 09:25:10;;;;;;;5.25;5.03;;;;;;;21.39;47.28;100771.59;4384711;32;20077;-69
2021/07/29 09:27:38;;;;;;;5.50;5.20;;;;;;;20.54;48.80;100768.91;4390563;32;20108;-71
2021/07/29 09:30:21;;;;;;;6.00;5.72;;;;;;;20.59;50.82;100771.22;4402732;32;20155;-71
2021/07/29 09:33:16;;;;;;;5.32;5.12;;;;;;;20.42;50.11;100770.06;4379891;32;20084;-69
2021/07/29 09:35:50;;;;;;;5.15;4.95;;;;;;;20.85;49.97;100755.41;4410255;32;20073;-69
2021/07/29 09:38:30;;;;;;;5.12;4.93;;;;;;;20.79;49.26;100769.31;4389541;32;20068;-69
2021/07/29 09:41:02;;;;;;;5.20;5.00;;;;;;;21.27;48.56;100757.62;4386474;32;20131;-69
2021/07/29 09:43:32;;;;;;;5.10;4.90;;;;;;;21.11;48.68;100768.94;4387436;32;20100;-69
2021/07/29 09:45:59;;;;;;;5.20;5.00;;;;;;;20.84;48.18;100778.56;4390563;32;20074;-70
2021/07/29 09:48:24;;;;;;;5.20;5.00;;;;;;;21.01;48.73;100776.97;4395535;32;20100;-72
2021/07/29 09:50:51;;;;;;;5.50;5.20;;;;;;;21.30;48.87;100762.66;4385488;32;20085;-69
2021/07/29 09:53:16;;;;;;;6.78;6.47;;;;;;;21.42;47.16;100777.47;4389007;32;20077;-68
2021/07/29 09:55:42;;;;;;;5.22;5.03;;;;;;;21.25;45.37;100754.28;4375424;32;20069;-68
2021/07/29 09:58:07;;;;;;;6.55;6.25;;;;;;;21.10;45.64;100735.22;4391301;32;20084;-68
2021/07/29 10:00:34;;;;;;;5.45;5.22;;;;;;;21.22;45.05;100762.56;4375416;32;20913;-68
2021/07/29 10:03:00;;;;;;;5.30;5.10;;;;;;;20.59;45.96;100736.53;4389638;32;20197;-69
2021/07/29 10:05:47;;;;;;;5.28;5.07;;;;;;;20.76;46.81;100774.94;4390279;32;20985;-68
2021/07/29 10:08:21;;;;;;;5.20;5.00;;;;;;;21.27;45.89;100769.13;4401903;32;20056;-68
2021/07/29 10:10:47;;;;;;;5.18;4.97;;;;;;;21.60;45.24;100772.22;4376627;32;20082;-68
2021/07/29 10:13:12;;;;;;;6.47;6.18;;;;;;;21.62;44.67;100740.84;4393048;32;20176;-67
2021/07/29 10:15:42;;;;;;;5.18;4.97;;;;;;;21.84;44.30;100771.63;4387404;32;21150;-69
2021/07/29 10:18:12;;;;;;;5.32;5.12;;;;;;;22.15;44.84;100768.59;4376319;32;20092;-70
2021/07/29 10:20:41;;;;;;;5.25;5.05;;;;;;;21.84;45.49;100762.78;4390895;32;20187;-68
2021/07/29 10:23:13;;;;;;;6.75;6.45;;;;;;;21.99;43.72;100728.34;4373572;32;20083;-68
2021/07/29 10:25:54;;;;;;;6.20;5.90;;;;;;;22.42;43.50;100767.66;4411411;32;21048;-66
2021/07/29 10:28:21;;;;;;;6.20;5.90;;;;;;;22.39;43.71;100759.09;4409411;32;20657;-67
2021/07/29 10:30:57;;;;;;;5.37;5.12;;;;;;;22.45;44.71;100748.66;4414765;32;21009;-68
2021/07/29 10:33:27;;;;;;;6.03;5.72;;;;;;;22.50;42.84;100738.31;4384663;32;20085;-71
2021/07/29 10:35:52;;;;;;;5.28;5.07;;;;;;;22.22;42.17;100766.97;4373602;32;20207;-70
2021/07/29 10:38:51;;;;;;;5.40;5.20;;;;;;;22.09;43.33;100771.84;4391141;32;20078;-71
2021/07/29 10:41:22;;;;;;;6.78;6.47;;;;;;;22.39;43.40;100773.34;4385713;32;20077;-68
2021/07/29 10:43:47;;;;;;;5.32;5.12;;;;;;;21.54;43.76;100723.91;4402215;32;20854;-70
2021/07/29 10:46:12;;;;;;;6.72;6.43;;;;;;;21.72;44.71;100770.16;4390004;32;20084;-69
2021/07/29 10:48:41;;;;;;;5.40;5.20;;;;;;;21.32;45.25;100763.34;4378604;32;20592;-72
2021/07/29 10:51:13;;;;;;;6.65;6.35;;;;;;;21.05;45.84;100773.03;4405747;32;20128;-69
2021/07/29 10:53:44;;;;;;;5.30;5.10;;;;;;;20.99;45.75;100773.63;4415616;32;20110;-69
2021/07/29 10:56:16;;;;;;;6.80;6.50;;;;;;;21.08;46.69;100772.72;4384290;32;20104;-69
2021/07/29 10:58:49;;;;;;;5.30;5.00;;;;;;;20.40;45.44;100596.09;4388961;32;20072;-70
2021/07/29 11:01:15;;;;;;;5.05;4.85;;;;;;;21.27;45.61;100773.66;4391031;32;20088;-70
2021/07/29 11:04:00;;;;;;;7.78;5.50;;;;;;;21.49;44.09;100773.28;4390785;32;20710;-70
2021/07/29 11:06:38;;;;;;;5.30;5.10;;;;;;;21.82;43.56;100765.59;4388163;32;20880;-71
2021/07/29 11:09:10;;;;;;;5.75;5.47;;;;;;;22.21;45.14;100767.12;4398361;32;20191;-69
2021/07/29 11:11:37;;;;;;;5.22;5.03;;;;;;;22.29;42.87;100765.41;4384124;32;20077;-72
2021/07/29 11:14:02;;;;;;;5.40;5.20;;;;;;;22.33;43.08;100768.63;4375753;32;20975;-70
2021/07/29 11:16:27;;;;;;;7.68;5.20;;;;;;;22.46;44.54;100769.03;4381181;32;20069;-70
2021/07/29 11:18:57;;;;;;;5.50;5.20;;;;;;;22.69;41.95;100761.34;4386665;32;20072;-69
2021/07/29 11:21:22;;;;;;;6.45;6.05;;;;;;;22.75;41.91;100761.69;4387940;32;20081;-69
2021/07/29 11:23:48;;;;;;;5.70;5.40;;;;;;;22.63;41.46;100761.97;4384476;32;20115;-73